Terminal Aerodrome Forecast
Issued by NWS

Home | Current Version | Previous Version | Text Only | Print | Product List | Glossary On
Versions: 1 2 3 4 5 6 7 8 9 10 11 12 13
000
FTUS42 TJSJ 030500
TAFKPK
TAF
TKPK 030520Z 0306/0406 06011KT P6SM FEW020
     FM031300 06018KT P6SM FEW018
     FM032300 05010KT P6SM FEW020
      AMD NOT SKED TIL 031100=

USA.gov is the U.S. government's official web portal to all federal, state and local government web resources and services.